sensor_id;sensor_type;location;lat;lon;timestamp;P1;durP1;ratioP1;P2;durP2;ratioP2
6757;SDS011;3416;53.074;8.822;2023-08-01T00:00:31;9.80;;;8.63;;
6757;SDS011;3416;53.074;8.822;2023-08-01T00:02:57;9.00;;;8.20;;
6757;SDS011;3416;53.074;8.822;2023-08-01T00:05:24;13.43;;;9.80;;
6757;SDS011;3416;53.074;8.822;2023-08-01T00:07:51;12.33;;;10.80;;
6757;SDS011;3416;53.074;8.822;2023-08-01T00:10:18;12.43;;;11.33;;
6757;SDS011;3416;53.074;8.822;2023-08-01T00:12:46;10.80;;;9.80;;
6757;SDS011;3416;53.074;8.822;2023-08-01T00:15:13;12.50;;;11.40;;
6757;SDS011;3416;53.074;8.822;2023-08-01T00:17:40;13.37;;;12.13;;
6757;SDS011;3416;53.074;8.822;2023-08-01T00:20:07;13.83;;;12.43;;
6757;SDS011;3416;53.074;8.822;2023-08-01T00:22:35;12.37;;;11.07;;
6757;SDS011;3416;53.074;8.822;2023-08-01T00:25:02;11.87;;;10.87;;
6757;SDS011;3416;53.074;8.822;2023-08-01T00:27:29;12.30;;;11.03;;
6757;SDS011;3416;53.074;8.822;2023-08-01T00:29:58;14.83;;;12.40;;
6757;SDS011;3416;53.074;8.822;2023-08-01T00:32:25;13.13;;;11.97;;
6757;SDS011;3416;53.074;8.822;2023-08-01T00:34:52;12.80;;;11.50;;
6757;SDS011;3416;53.074;8.822;2023-08-01T00:37:19;13.13;;;11.47;;
6757;SDS011;3416;53.074;8.822;2023-08-01T00:39:45;10.83;;;9.93;;
6757;SDS011;3416;53.074;8.822;2023-08-01T00:42:12;10.53;;;9.53;;
6757;SDS011;3416;53.074;8.822;2023-08-01T00:44:39;10.87;;;9.80;;
6757;SDS011;3416;53.074;8.822;2023-08-01T00:47:07;12.40;;;11.20;;
6757;SDS011;3416;53.074;8.822;2023-08-01T00:49:34;14.87;;;13.37;;
6757;SDS011;3416;53.074;8.822;2023-08-01T00:52:01;12.40;;;11.07;;
6757;SDS011;3416;53.074;8.822;2023-08-01T00:54:28;12.90;;;11.20;;
6757;SDS011;3416;53.074;8.822;2023-08-01T00:57:01;11.33;;;10.13;;
6757;SDS011;3416;53.074;8.822;2023-08-01T00:59:28;11.67;;;10.47;;
6757;SDS011;3416;53.074;8.822;2023-08-01T01:01:55;11.43;;;9.80;;
6757;SDS011;3416;53.074;8.822;2023-08-01T01:04:23;15.43;;;11.67;;
6757;SDS011;3416;53.074;8.822;2023-08-01T01:06:51;10.30;;;9.30;;
6757;SDS011;3416;53.074;8.822;2023-08-01T01:09:23;14.80;;;12.27;;
6757;SDS011;3416;53.074;8.822;2023-08-01T01:11:50;13.03;;;10.63;;
6757;SDS011;3416;53.074;8.822;2023-08-01T01:14:17;14.90;;;11.50;;
6757;SDS011;3416;53.074;8.822;2023-08-01T01:16:43;16.37;;;12.60;;
6757;SDS011;3416;53.074;8.822;2023-08-01T01:19:10;13.20;;;11.20;;
6757;SDS011;3416;53.074;8.822;2023-08-01T01:24:47;12.83;;;11.53;;
6757;SDS011;3416;53.074;8.822;2023-08-01T01:27:15;13.87;;;11.97;;
6757;SDS011;3416;53.074;8.822;2023-08-01T01:29:45;16.37;;;13.97;;
6757;SDS011;3416;53.074;8.822;2023-08-01T01:32:14;16.20;;;13.23;;
6757;SDS011;3416;53.074;8.822;2023-08-01T01:34:41;14.63;;;13.13;;
6757;SDS011;3416;53.074;8.822;2023-08-01T01:37:10;15.87;;;12.83;;
6757;SDS011;3416;53.074;8.822;2023-08-01T01:39:38;16.37;;;13.03;;
6757;SDS011;3416;53.074;8.822;2023-08-01T01:42:05;14.03;;;11.73;;
6757;SDS011;3416;53.074;8.822;2023-08-01T01:44:32;14.63;;;12.97;;
6757;SDS011;3416;53.074;8.822;2023-08-01T01:46:59;12.47;;;11.17;;
6757;SDS011;3416;53.074;8.822;2023-08-01T01:49:26;13.03;;;11.67;;
6757;SDS011;3416;53.074;8.822;2023-08-01T01:51:54;17.83;;;14.43;;
6757;SDS011;3416;53.074;8.822;2023-08-01T01:54:21;13.10;;;11.80;;
6757;SDS011;3416;53.074;8.822;2023-08-01T01:56:49;13.30;;;11.73;;
6757;SDS011;3416;53.074;8.822;2023-08-01T01:59:16;14.90;;;12.50;;
6757;SDS011;3416;53.074;8.822;2023-08-01T02:01:43;13.30;;;11.20;;
6757;SDS011;3416;53.074;8.822;2023-08-01T02:04:10;14.30;;;12.17;;
6757;SDS011;3416;53.074;8.822;2023-08-01T02:06:37;15.10;;;12.23;;
6757;SDS011;3416;53.074;8.822;2023-08-01T02:09:03;14.67;;;11.20;;
6757;SDS011;3416;53.074;8.822;2023-08-01T02:11:30;16.20;;;12.70;;
6757;SDS011;3416;53.074;8.822;2023-08-01T02:13:58;17.47;;;12.07;;
6757;SDS011;3416;53.074;8.822;2023-08-01T02:16:26;12.20;;;11.00;;
6757;SDS011;3416;53.074;8.822;2023-08-01T02:18:53;11.00;;;9.80;;
6757;SDS011;3416;53.074;8.822;2023-08-01T02:21:20;12.83;;;10.07;;
6757;SDS011;3416;53.074;8.822;2023-08-01T02:23:47;16.13;;;11.80;;
6757;SDS011;3416;53.074;8.822;2023-08-01T02:26:14;15.17;;;10.50;;
6757;SDS011;3416;53.074;8.822;2023-08-01T02:28:40;12.23;;;10.93;;
6757;SDS011;3416;53.074;8.822;2023-08-01T02:31:09;17.40;;;12.37;;
6757;SDS011;3416;53.074;8.822;2023-08-01T02:33:37;12.57;;;11.30;;
6757;SDS011;3416;53.074;8.822;2023-08-01T02:36:04;14.37;;;12.87;;
6757;SDS011;3416;53.074;8.822;2023-08-01T02:38:31;15.10;;;13.03;;
6757;SDS011;3416;53.074;8.822;2023-08-01T02:40:57;19.53;;;14.20;;
6757;SDS011;3416;53.074;8.822;2023-08-01T02:43:24;13.80;;;12.37;;
6757;SDS011;3416;53.074;8.822;2023-08-01T02:45:51;13.47;;;12.17;;
6757;SDS011;3416;53.074;8.822;2023-08-01T02:48:19;13.23;;;11.90;;
6757;SDS011;3416;53.074;8.822;2023-08-01T02:50:46;15.00;;;13.17;;
6757;SDS011;3416;53.074;8.822;2023-08-01T02:53:13;14.17;;;12.23;;
6757;SDS011;3416;53.074;8.822;2023-08-01T02:55:40;20.00;;;14.73;;
6757;SDS011;3416;53.074;8.822;2023-08-01T02:58:06;14.97;;;13.40;;
6757;SDS011;3416;53.074;8.822;2023-08-01T03:00:33;13.83;;;12.13;;
6757;SDS011;3416;53.074;8.822;2023-08-01T03:03:04;20.13;;;13.87;;
6757;SDS011;3416;53.074;8.822;2023-08-01T03:05:32;16.80;;;13.00;;
6757;SDS011;3416;53.074;8.822;2023-08-01T03:08:02;14.80;;;12.07;;
6757;SDS011;3416;53.074;8.822;2023-08-01T03:10:29;19.30;;;13.63;;
6757;SDS011;3416;53.074;8.822;2023-08-01T03:12:56;15.33;;;12.63;;
6757;SDS011;3416;53.074;8.822;2023-08-01T03:15:22;15.17;;;13.57;;
6757;SDS011;3416;53.074;8.822;2023-08-01T03:17:49;41.10;;;15.30;;
6757;SDS011;3416;53.074;8.822;2023-08-01T03:20:16;18.30;;;14.23;;
6757;SDS011;3416;53.074;8.822;2023-08-01T03:22:44;20.10;;;14.43;;
6757;SDS011;3416;53.074;8.822;2023-08-01T03:25:11;23.87;;;17.40;;
6757;SDS011;3416;53.074;8.822;2023-08-01T03:27:38;20.40;;;15.40;;
6757;SDS011;3416;53.074;8.822;2023-08-01T03:30:05;19.03;;;14.97;;
6757;SDS011;3416;53.074;8.822;2023-08-01T03:32:33;19.43;;;15.73;;
6757;SDS011;3416;53.074;8.822;2023-08-01T03:35:02;20.07;;;15.53;;
6757;SDS011;3416;53.074;8.822;2023-08-01T03:37:29;18.07;;;15.40;;
6757;SDS011;3416;53.074;8.822;2023-08-01T03:39:57;17.90;;;15.40;;
6757;SDS011;3416;53.074;8.822;2023-08-01T03:42:24;23.60;;;16.87;;
6757;SDS011;3416;53.074;8.822;2023-08-01T03:44:51;17.10;;;13.50;;
6757;SDS011;3416;53.074;8.822;2023-08-01T03:47:17;17.77;;;14.90;;
6757;SDS011;3416;53.074;8.822;2023-08-01T03:49:44;19.53;;;14.70;;
6757;SDS011;3416;53.074;8.822;2023-08-01T03:52:11;18.73;;;15.63;;
6757;SDS011;3416;53.074;8.822;2023-08-01T03:54:38;22.47;;;15.47;;
6757;SDS011;3416;53.074;8.822;2023-08-01T03:57:06;18.67;;;15.33;;
6757;SDS011;3416;53.074;8.822;2023-08-01T03:59:33;16.50;;;13.83;;
6757;SDS011;3416;53.074;8.822;2023-08-01T04:01:59;19.77;;;15.60;;
6757;SDS011;3416;53.074;8.822;2023-08-01T04:04:26;19.43;;;15.20;;
6757;SDS011;3416;53.074;8.822;2023-08-01T04:06:53;20.80;;;15.50;;
6757;SDS011;3416;53.074;8.822;2023-08-01T05:21:51;15.10;;;8.55;;
6757;SDS011;3416;53.074;8.822;2023-08-01T05:24:38;12.10;;;8.27;;
6757;SDS011;3416;53.074;8.822;2023-08-01T05:27:34;7.27;;;6.53;;
6757;SDS011;3416;53.074;8.822;2023-08-01T05:30:19;9.50;;;7.55;;
6757;SDS011;3416;53.074;8.822;2023-08-01T05:32:46;13.37;;;7.00;;
6757;SDS011;3416;53.074;8.822;2023-08-01T05:35:12;9.07;;;7.10;;
6757;SDS011;3416;53.074;8.822;2023-08-01T05:37:41;6.20;;;5.40;;
6757;SDS011;3416;53.074;8.822;2023-08-01T05:40:08;10.83;;;7.77;;
6757;SDS011;3416;53.074;8.822;2023-08-01T05:42:36;11.60;;;8.67;;
6757;SDS011;3416;53.074;8.822;2023-08-01T05:45:03;13.30;;;8.50;;
6757;SDS011;3416;53.074;8.822;2023-08-01T05:47:30;12.50;;;8.50;;
6757;SDS011;3416;53.074;8.822;2023-08-01T05:49:57;10.17;;;6.83;;
6757;SDS011;3416;53.074;8.822;2023-08-01T05:52:24;14.57;;;9.17;;
6757;SDS011;3416;53.074;8.822;2023-08-01T06:36:43;16.80;;;12.80;;
6757;SDS011;3416;53.074;8.822;2023-08-01T06:39:10;16.93;;;14.30;;
6757;SDS011;3416;53.074;8.822;2023-08-01T06:41:37;19.17;;;12.90;;
6757;SDS011;3416;53.074;8.822;2023-08-01T06:44:03;15.93;;;13.77;;
6757;SDS011;3416;53.074;8.822;2023-08-01T06:46:30;15.30;;;12.13;;
6757;SDS011;3416;53.074;8.822;2023-08-01T06:48:57;15.60;;;13.07;;
6757;SDS011;3416;53.074;8.822;2023-08-01T06:51:24;15.37;;;13.80;;
6757;SDS011;3416;53.074;8.822;2023-08-01T06:53:53;15.93;;;14.10;;
6757;SDS011;3416;53.074;8.822;2023-08-01T06:56:20;15.43;;;13.73;;
6757;SDS011;3416;53.074;8.822;2023-08-01T06:58:47;13.70;;;11.40;;
6757;SDS011;3416;53.074;8.822;2023-08-01T07:01:14;16.03;;;12.40;;
6757;SDS011;3416;53.074;8.822;2023-08-01T07:03:41;14.10;;;11.47;;
6757;SDS011;3416;53.074;8.822;2023-08-01T07:06:07;13.47;;;11.00;;
6757;SDS011;3416;53.074;8.822;2023-08-01T07:08:35;12.90;;;10.50;;
6757;SDS011;3416;53.074;8.822;2023-08-01T07:11:03;15.37;;;10.10;;
6757;SDS011;3416;53.074;8.822;2023-08-01T07:13:30;14.80;;;9.30;;
6757;SDS011;3416;53.074;8.822;2023-08-01T07:15:57;11.60;;;8.73;;
6757;SDS011;3416;53.074;8.822;2023-08-01T07:18:24;12.67;;;8.73;;
6757;SDS011;3416;53.074;8.822;2023-08-01T07:20:58;7.80;;;6.63;;
6757;SDS011;3416;53.074;8.822;2023-08-01T07:23:25;9.67;;;7.30;;
6757;SDS011;3416;53.074;8.822;2023-08-01T07:25:52;6.73;;;5.03;;
6757;SDS011;3416;53.074;8.822;2023-08-01T08:30:29;4.43;;;2.80;;
6757;SDS011;3416;53.074;8.822;2023-08-01T08:32:57;16.80;;;3.50;;
6757;SDS011;3416;53.074;8.822;2023-08-01T08:35:25;5.37;;;2.37;;
6757;SDS011;3416;53.074;8.822;2023-08-01T08:37:52;5.37;;;2.90;;
6757;SDS011;3416;53.074;8.822;2023-08-01T08:40:19;5.93;;;2.77;;
6757;SDS011;3416;53.074;8.822;2023-08-01T08:42:46;7.27;;;3.80;;
6757;SDS011;3416;53.074;8.822;2023-08-01T08:45:15;3.70;;;2.73;;
6757;SDS011;3416;53.074;8.822;2023-08-01T08:47:47;8.20;;;3.10;;
6757;SDS011;3416;53.074;8.822;2023-08-01T08:50:20;4.00;;;2.10;;
6757;SDS011;3416;53.074;8.822;2023-08-01T08:52:47;5.50;;;2.40;;
6757;SDS011;3416;53.074;8.822;2023-08-01T08:55:14;4.80;;;2.07;;
6757;SDS011;3416;53.074;8.822;2023-08-01T08:57:42;6.57;;;2.20;;
6757;SDS011;3416;53.074;8.822;2023-08-01T09:00:12;3.50;;;2.10;;
6757;SDS011;3416;53.074;8.822;2023-08-01T09:02:39;3.33;;;2.10;;
6757;SDS011;3416;53.074;8.822;2023-08-01T09:05:08;6.07;;;2.47;;
6757;SDS011;3416;53.074;8.822;2023-08-01T09:07:34;4.23;;;1.67;;
6757;SDS011;3416;53.074;8.822;2023-08-01T09:10:08;2.67;;;1.70;;
6757;SDS011;3416;53.074;8.822;2023-08-01T09:12:35;5.33;;;2.10;;
6757;SDS011;3416;53.074;8.822;2023-08-01T09:15:03;2.10;;;1.40;;
6757;SDS011;3416;53.074;8.822;2023-08-01T09:17:30;3.30;;;1.60;;
6757;SDS011;3416;53.074;8.822;2023-08-01T09:20:02;3.90;;;2.53;;
6757;SDS011;3416;53.074;8.822;2023-08-01T09:22:31;3.43;;;1.50;;
6757;SDS011;3416;53.074;8.822;2023-08-01T09:25:07;5.33;;;1.43;;
6757;SDS011;3416;53.074;8.822;2023-08-01T09:27:34;2.07;;;1.40;;
6757;SDS011;3416;53.074;8.822;2023-08-01T09:30:05;3.77;;;1.87;;
6757;SDS011;3416;53.074;8.822;2023-08-01T09:32:33;2.90;;;1.77;;
6757;SDS011;3416;53.074;8.822;2023-08-01T09:35:00;3.67;;;1.60;;
6757;SDS011;3416;53.074;8.822;2023-08-01T09:40:19;2.00;;;1.23;;
6757;SDS011;3416;53.074;8.822;2023-08-01T09:42:46;3.20;;;1.40;;
6757;SDS011;3416;53.074;8.822;2023-08-01T09:45:13;3.37;;;1.57;;
6757;SDS011;3416;53.074;8.822;2023-08-01T09:47:40;3.10;;;2.40;;
6757;SDS011;3416;53.074;8.822;2023-08-01T09:50:34;2.23;;;1.33;;
6757;SDS011;3416;53.074;8.822;2023-08-01T09:53:12;5.20;;;2.40;;
6757;SDS011;3416;53.074;8.822;2023-08-01T09:55:38;3.93;;;1.97;;
6757;SDS011;3416;53.074;8.822;2023-08-01T09:58:07;2.90;;;1.60;;
6757;SDS011;3416;53.074;8.822;2023-08-01T10:00:36;7.33;;;2.63;;
6757;SDS011;3416;53.074;8.822;2023-08-01T10:03:03;1.87;;;1.57;;
6757;SDS011;3416;53.074;8.822;2023-08-01T10:05:31;2.47;;;1.43;;
6757;SDS011;3416;53.074;8.822;2023-08-01T10:08:00;4.67;;;2.27;;
6757;SDS011;3416;53.074;8.822;2023-08-01T10:10:30;5.20;;;1.50;;
6757;SDS011;3416;53.074;8.822;2023-08-01T10:12:57;2.60;;;2.00;;
6757;SDS011;3416;53.074;8.822;2023-08-01T10:15:24;2.87;;;1.93;;
6757;SDS011;3416;53.074;8.822;2023-08-01T10:17:51;4.37;;;1.97;;
6757;SDS011;3416;53.074;8.822;2023-08-01T10:20:18;4.90;;;2.17;;
6757;SDS011;3416;53.074;8.822;2023-08-01T10:22:47;5.30;;;2.00;;
6757;SDS011;3416;53.074;8.822;2023-08-01T10:25:15;5.53;;;2.27;;
6757;SDS011;3416;53.074;8.822;2023-08-01T10:27:44;1.60;;;1.20;;
6757;SDS011;3416;53.074;8.822;2023-08-01T10:30:11;2.30;;;1.73;;
6757;SDS011;3416;53.074;8.822;2023-08-01T10:32:38;3.37;;;1.60;;
6757;SDS011;3416;53.074;8.822;2023-08-01T10:35:06;1.57;;;0.97;;
6757;SDS011;3416;53.074;8.822;2023-08-01T10:37:40;3.10;;;1.63;;
6757;SDS011;3416;53.074;8.822;2023-08-01T10:40:07;2.70;;;1.40;;
6757;SDS011;3416;53.074;8.822;2023-08-01T10:42:38;11.93;;;2.07;;
6757;SDS011;3416;53.074;8.822;2023-08-01T10:45:08;2.30;;;1.30;;
6757;SDS011;3416;53.074;8.822;2023-08-01T10:47:46;3.13;;;1.50;;
6757;SDS011;3416;53.074;8.822;2023-08-01T10:50:13;2.13;;;1.47;;
6757;SDS011;3416;53.074;8.822;2023-08-01T10:52:41;4.37;;;1.40;;
6757;SDS011;3416;53.074;8.822;2023-08-01T10:55:09;2.10;;;1.30;;
6757;SDS011;3416;53.074;8.822;2023-08-01T10:57:37;2.60;;;1.30;;
6757;SDS011;3416;53.074;8.822;2023-08-01T11:00:05;2.13;;;1.50;;
6757;SDS011;3416;53.074;8.822;2023-08-01T11:02:35;4.57;;;1.67;;
6757;SDS011;3416;53.074;8.822;2023-08-01T11:05:04;4.13;;;1.23;;
6757;SDS011;3416;53.074;8.822;2023-08-01T11:07:32;3.23;;;1.17;;
6757;SDS011;3416;53.074;8.822;2023-08-01T11:10:04;2.00;;;1.13;;
6757;SDS011;3416;53.074;8.822;2023-08-01T11:12:33;2.00;;;1.10;;
6757;SDS011;3416;53.074;8.822;2023-08-01T11:15:02;2.80;;;1.10;;
6757;SDS011;3416;53.074;8.822;2023-08-01T11:17:32;1.93;;;1.10;;
6757;SDS011;3416;53.074;8.822;2023-08-01T11:20:03;2.97;;;1.13;;
6757;SDS011;3416;53.074;8.822;2023-08-01T11:22:32;2.57;;;1.30;;
6757;SDS011;3416;53.074;8.822;2023-08-01T11:24:59;1.83;;;1.00;;
6757;SDS011;3416;53.074;8.822;2023-08-01T11:27:26;1.63;;;0.90;;
6757;SDS011;3416;53.074;8.822;2023-08-01T11:29:53;3.77;;;1.40;;
6757;SDS011;3416;53.074;8.822;2023-08-01T11:32:20;6.43;;;1.53;;
6757;SDS011;3416;53.074;8.822;2023-08-01T11:34:49;3.63;;;1.00;;
6757;SDS011;3416;53.074;8.822;2023-08-01T11:37:18;1.80;;;0.90;;
6757;SDS011;3416;53.074;8.822;2023-08-01T11:39:46;2.13;;;1.30;;
6757;SDS011;3416;53.074;8.822;2023-08-01T11:42:15;2.50;;;1.33;;
6757;SDS011;3416;53.074;8.822;2023-08-01T11:44:42;1.83;;;1.20;;
6757;SDS011;3416;53.074;8.822;2023-08-01T11:47:10;1.87;;;1.00;;
6757;SDS011;3416;53.074;8.822;2023-08-01T11:49:39;2.17;;;1.40;;
6757;SDS011;3416;53.074;8.822;2023-08-01T11:52:12;1.57;;;1.00;;
6757;SDS011;3416;53.074;8.822;2023-08-01T11:54:49;2.80;;;1.10;;
6757;SDS011;3416;53.074;8.822;2023-08-01T11:57:16;2.07;;;1.20;;
6757;SDS011;3416;53.074;8.822;2023-08-01T11:59:46;3.67;;;1.53;;
6757;SDS011;3416;53.074;8.822;2023-08-01T12:02:20;2.00;;;1.20;;
6757;SDS011;3416;53.074;8.822;2023-08-01T12:04:48;2.00;;;1.20;;
6757;SDS011;3416;53.074;8.822;2023-08-01T12:07:16;6.50;;;1.63;;
6757;SDS011;3416;53.074;8.822;2023-08-01T12:09:44;4.27;;;2.30;;
6757;SDS011;3416;53.074;8.822;2023-08-01T12:12:11;3.50;;;1.60;;
6757;SDS011;3416;53.074;8.822;2023-08-01T12:14:41;3.63;;;1.17;;
6757;SDS011;3416;53.074;8.822;2023-08-01T12:17:08;1.47;;;0.93;;
6757;SDS011;3416;53.074;8.822;2023-08-01T12:19:34;2.37;;;0.97;;
6757;SDS011;3416;53.074;8.822;2023-08-01T12:22:01;2.57;;;1.17;;
6757;SDS011;3416;53.074;8.822;2023-08-01T12:24:30;5.97;;;1.40;;
6757;SDS011;3416;53.074;8.822;2023-08-01T12:26:56;2.40;;;1.37;;
6757;SDS011;3416;53.074;8.822;2023-08-01T12:29:23;3.70;;;1.20;;
6757;SDS011;3416;53.074;8.822;2023-08-01T12:31:50;2.40;;;1.07;;
6757;SDS011;3416;53.074;8.822;2023-08-01T12:34:17;2.00;;;1.20;;
6757;SDS011;3416;53.074;8.822;2023-08-01T12:36:44;2.50;;;1.87;;
6757;SDS011;3416;53.074;8.822;2023-08-01T12:39:11;4.90;;;1.43;;
6757;SDS011;3416;53.074;8.822;2023-08-01T12:41:39;3.80;;;1.90;;
6757;SDS011;3416;53.074;8.822;2023-08-01T12:44:06;4.13;;;1.67;;
6757;SDS011;3416;53.074;8.822;2023-08-01T12:46:33;4.73;;;2.20;;
6757;SDS011;3416;53.074;8.822;2023-08-01T12:49:00;2.60;;;1.50;;
6757;SDS011;3416;53.074;8.822;2023-08-01T12:51:27;2.37;;;1.30;;
6757;SDS011;3416;53.074;8.822;2023-08-01T12:53:54;4.80;;;1.50;;
6757;SDS011;3416;53.074;8.822;2023-08-01T12:56:21;2.33;;;1.20;;
6757;SDS011;3416;53.074;8.822;2023-08-01T12:58:49;1.87;;;1.10;;
6757;SDS011;3416;53.074;8.822;2023-08-01T13:01:16;4.83;;;2.03;;
6757;SDS011;3416;53.074;8.822;2023-08-01T13:03:43;5.33;;;1.57;;
6757;SDS011;3416;53.074;8.822;2023-08-01T13:06:11;3.97;;;2.00;;
6757;SDS011;3416;53.074;8.822;2023-08-01T13:08:38;2.00;;;1.40;;
6757;SDS011;3416;53.074;8.822;2023-08-01T13:11:11;3.43;;;2.90;;
6757;SDS011;3416;53.074;8.822;2023-08-01T13:13:39;6.80;;;2.70;;
6757;SDS011;3416;53.074;8.822;2023-08-01T13:16:08;7.03;;;3.53;;
6757;SDS011;3416;53.074;8.822;2023-08-01T13:18:35;4.90;;;1.83;;
6757;SDS011;3416;53.074;8.822;2023-08-01T13:21:08;1.50;;;1.03;;
6757;SDS011;3416;53.074;8.822;2023-08-01T13:23:35;2.93;;;1.97;;
6757;SDS011;3416;53.074;8.822;2023-08-01T13:26:02;3.30;;;1.90;;
6757;SDS011;3416;53.074;8.822;2023-08-01T13:28:29;5.03;;;1.53;;
6757;SDS011;3416;53.074;8.822;2023-08-01T13:30:56;2.03;;;1.33;;
6757;SDS011;3416;53.074;8.822;2023-08-01T13:33:24;2.10;;;1.43;;
6757;SDS011;3416;53.074;8.822;2023-08-01T13:35:51;2.53;;;1.60;;
6757;SDS011;3416;53.074;8.822;2023-08-01T13:38:19;2.87;;;1.53;;
6757;SDS011;3416;53.074;8.822;2023-08-01T13:40:48;3.47;;;1.37;;
6757;SDS011;3416;53.074;8.822;2023-08-01T13:43:15;3.90;;;1.33;;
6757;SDS011;3416;53.074;8.822;2023-08-01T13:45:44;3.60;;;1.63;;
6757;SDS011;3416;53.074;8.822;2023-08-01T13:48:11;3.13;;;1.87;;
6757;SDS011;3416;53.074;8.822;2023-08-01T13:50:39;2.50;;;1.00;;
6757;SDS011;3416;53.074;8.822;2023-08-01T13:53:06;1.90;;;1.70;;
6757;SDS011;3416;53.074;8.822;2023-08-01T13:55:37;5.87;;;1.50;;
6757;SDS011;3416;53.074;8.822;2023-08-01T13:58:06;3.20;;;1.80;;
6757;SDS011;3416;53.074;8.822;2023-08-01T14:00:33;3.00;;;1.67;;
6757;SDS011;3416;53.074;8.822;2023-08-01T14:02:59;3.30;;;1.30;;
6757;SDS011;3416;53.074;8.822;2023-08-01T14:05:27;1.57;;;1.03;;
6757;SDS011;3416;53.074;8.822;2023-08-01T14:07:57;3.23;;;1.20;;
6757;SDS011;3416;53.074;8.822;2023-08-01T14:10:26;2.70;;;1.30;;
6757;SDS011;3416;53.074;8.822;2023-08-01T14:13:00;5.83;;;1.00;;
6757;SDS011;3416;53.074;8.822;2023-08-01T14:15:27;1.80;;;1.17;;
6757;SDS011;3416;53.074;8.822;2023-08-01T14:17:54;2.70;;;1.27;;
6757;SDS011;3416;53.074;8.822;2023-08-01T14:20:22;3.90;;;1.10;;
6757;SDS011;3416;53.074;8.822;2023-08-01T14:22:52;3.23;;;1.67;;
6757;SDS011;3416;53.074;8.822;2023-08-01T14:25:23;2.70;;;1.27;;
6757;SDS011;3416;53.074;8.822;2023-08-01T14:27:52;5.50;;;1.90;;
6757;SDS011;3416;53.074;8.822;2023-08-01T14:30:31;6.63;;;1.63;;
6757;SDS011;3416;53.074;8.822;2023-08-01T14:51:24;2.97;;;1.20;;
6757;SDS011;3416;53.074;8.822;2023-08-01T14:54:00;3.60;;;1.80;;
6757;SDS011;3416;53.074;8.822;2023-08-01T14:56:27;4.83;;;1.60;;
6757;SDS011;3416;53.074;8.822;2023-08-01T14:58:55;2.23;;;1.30;;
6757;SDS011;3416;53.074;8.822;2023-08-01T15:01:32;2.53;;;1.23;;
6757;SDS011;3416;53.074;8.822;2023-08-01T15:04:00;1.73;;;1.27;;
6757;SDS011;3416;53.074;8.822;2023-08-01T15:06:32;6.73;;;1.73;;
6757;SDS011;3416;53.074;8.822;2023-08-01T15:14:51;7.60;;;3.97;;
6757;SDS011;3416;53.074;8.822;2023-08-01T15:17:27;7.63;;;2.53;;
6757;SDS011;3416;53.074;8.822;2023-08-01T15:20:09;4.00;;;1.77;;
6757;SDS011;3416;53.074;8.822;2023-08-01T15:22:46;6.03;;;1.83;;
6757;SDS011;3416;53.074;8.822;2023-08-01T15:25:24;5.07;;;1.47;;
6757;SDS011;3416;53.074;8.822;2023-08-01T15:27:57;3.43;;;2.10;;
6757;SDS011;3416;53.074;8.822;2023-08-01T15:30:24;3.27;;;1.30;;
6757;SDS011;3416;53.074;8.822;2023-08-01T15:32:51;3.77;;;1.90;;
6757;SDS011;3416;53.074;8.822;2023-08-01T15:35:27;3.07;;;1.70;;
6757;SDS011;3416;53.074;8.822;2023-08-01T15:37:58;5.03;;;3.50;;
6757;SDS011;3416;53.074;8.822;2023-08-01T15:40:38;2.73;;;1.40;;
6757;SDS011;3416;53.074;8.822;2023-08-01T15:43:09;3.60;;;1.60;;
6757;SDS011;3416;53.074;8.822;2023-08-01T15:45:36;3.73;;;1.57;;
6757;SDS011;3416;53.074;8.822;2023-08-01T15:48:03;3.00;;;1.37;;
6757;SDS011;3416;53.074;8.822;2023-08-01T15:50:30;4.47;;;1.87;;
6757;SDS011;3416;53.074;8.822;2023-08-01T15:52:58;2.90;;;1.47;;
6757;SDS011;3416;53.074;8.822;2023-08-01T15:55:25;4.63;;;1.73;;
6757;SDS011;3416;53.074;8.822;2023-08-01T15:57:52;5.90;;;2.90;;
6757;SDS011;3416;53.074;8.822;2023-08-01T16:00:19;4.33;;;1.90;;
6757;SDS011;3416;53.074;8.822;2023-08-01T16:02:45;2.03;;;1.30;;
6757;SDS011;3416;53.074;8.822;2023-08-01T16:05:12;4.00;;;2.17;;
6757;SDS011;3416;53.074;8.822;2023-08-01T16:07:39;3.40;;;1.57;;
6757;SDS011;3416;53.074;8.822;2023-08-01T16:10:07;3.57;;;1.40;;
6757;SDS011;3416;53.074;8.822;2023-08-01T16:12:35;3.37;;;1.57;;
6757;SDS011;3416;53.074;8.822;2023-08-01T16:15:01;2.63;;;2.10;;
6757;SDS011;3416;53.074;8.822;2023-08-01T16:17:29;2.50;;;1.60;;
6757;SDS011;3416;53.074;8.822;2023-08-01T16:19:55;3.33;;;1.50;;
6757;SDS011;3416;53.074;8.822;2023-08-01T16:22:22;6.73;;;1.80;;
6757;SDS011;3416;53.074;8.822;2023-08-01T16:24:49;2.60;;;1.17;;
6757;SDS011;3416;53.074;8.822;2023-08-01T16:27:17;2.33;;;1.60;;
6757;SDS011;3416;53.074;8.822;2023-08-01T16:29:44;2.50;;;1.77;;
6757;SDS011;3416;53.074;8.822;2023-08-01T16:32:11;5.27;;;1.70;;
6757;SDS011;3416;53.074;8.822;2023-08-01T16:34:38;2.30;;;1.40;;
6757;SDS011;3416;53.074;8.822;2023-08-01T16:37:05;3.10;;;1.93;;
6757;SDS011;3416;53.074;8.822;2023-08-01T16:39:32;3.83;;;1.53;;
6757;SDS011;3416;53.074;8.822;2023-08-01T16:41:58;3.37;;;1.90;;
6757;SDS011;3416;53.074;8.822;2023-08-01T16:44:27;6.73;;;2.57;;
6757;SDS011;3416;53.074;8.822;2023-08-01T16:46:53;3.07;;;1.43;;
6757;SDS011;3416;53.074;8.822;2023-08-01T16:49:20;5.07;;;2.13;;
6757;SDS011;3416;53.074;8.822;2023-08-01T16:51:47;5.00;;;2.40;;
6757;SDS011;3416;53.074;8.822;2023-08-01T16:54:14;3.73;;;1.73;;
6757;SDS011;3416;53.074;8.822;2023-08-01T16:56:44;2.83;;;1.60;;
6757;SDS011;3416;53.074;8.822;2023-08-01T16:59:10;7.13;;;2.30;;
6757;SDS011;3416;53.074;8.822;2023-08-01T17:01:39;9.80;;;2.30;;
6757;SDS011;3416;53.074;8.822;2023-08-01T17:04:05;4.70;;;1.83;;
6757;SDS011;3416;53.074;8.822;2023-08-01T17:06:32;9.90;;;2.57;;
6757;SDS011;3416;53.074;8.822;2023-08-01T17:08:59;3.70;;;1.80;;
6757;SDS011;3416;53.074;8.822;2023-08-01T17:11:26;2.47;;;1.50;;
6757;SDS011;3416;53.074;8.822;2023-08-01T17:13:53;4.83;;;1.90;;
6757;SDS011;3416;53.074;8.822;2023-08-01T17:16:20;6.03;;;1.80;;
6757;SDS011;3416;53.074;8.822;2023-08-01T17:18:48;2.73;;;1.67;;
6757;SDS011;3416;53.074;8.822;2023-08-01T17:21:15;6.03;;;2.20;;
6757;SDS011;3416;53.074;8.822;2023-08-01T17:23:43;2.60;;;1.77;;
6757;SDS011;3416;53.074;8.822;2023-08-01T17:26:10;2.53;;;1.80;;
6757;SDS011;3416;53.074;8.822;2023-08-01T17:28:36;5.30;;;1.63;;
6757;SDS011;3416;53.074;8.822;2023-08-01T17:31:04;2.27;;;1.23;;
6757;SDS011;3416;53.074;8.822;2023-08-01T17:33:31;2.50;;;1.50;;
6757;SDS011;3416;53.074;8.822;2023-08-01T17:35:59;5.60;;;1.63;;
6757;SDS011;3416;53.074;8.822;2023-08-01T17:38:26;2.90;;;1.30;;
6757;SDS011;3416;53.074;8.822;2023-08-01T17:40:52;2.60;;;1.57;;
6757;SDS011;3416;53.074;8.822;2023-08-01T17:43:19;1.97;;;1.13;;
6757;SDS011;3416;53.074;8.822;2023-08-01T17:45:46;3.20;;;1.40;;
6757;SDS011;3416;53.074;8.822;2023-08-01T17:48:13;3.80;;;1.37;;
6757;SDS011;3416;53.074;8.822;2023-08-01T17:50:42;4.40;;;1.70;;
6757;SDS011;3416;53.074;8.822;2023-08-01T17:53:10;5.00;;;3.10;;
6757;SDS011;3416;53.074;8.822;2023-08-01T17:55:38;3.10;;;1.37;;
6757;SDS011;3416;53.074;8.822;2023-08-01T17:58:05;1.23;;;1.13;;
6757;SDS011;3416;53.074;8.822;2023-08-01T18:00:31;2.93;;;1.10;;
6757;SDS011;3416;53.074;8.822;2023-08-01T18:02:58;3.30;;;1.90;;
6757;SDS011;3416;53.074;8.822;2023-08-01T18:05:27;3.30;;;1.10;;
6757;SDS011;3416;53.074;8.822;2023-08-01T18:07:54;1.27;;;0.80;;
6757;SDS011;3416;53.074;8.822;2023-08-01T18:10:22;1.90;;;0.90;;
6757;SDS011;3416;53.074;8.822;2023-08-01T18:12:51;4.93;;;1.30;;
6757;SDS011;3416;53.074;8.822;2023-08-01T18:15:18;1.63;;;1.10;;
6757;SDS011;3416;53.074;8.822;2023-08-01T18:17:45;2.37;;;1.50;;
6757;SDS011;3416;53.074;8.822;2023-08-01T18:20:12;4.43;;;1.60;;
6757;SDS011;3416;53.074;8.822;2023-08-01T18:22:39;2.20;;;1.33;;
6757;SDS011;3416;53.074;8.822;2023-08-01T18:25:06;2.63;;;1.00;;
6757;SDS011;3416;53.074;8.822;2023-08-01T18:27:35;1.83;;;1.20;;
6757;SDS011;3416;53.074;8.822;2023-08-01T18:30:01;2.53;;;0.97;;
6757;SDS011;3416;53.074;8.822;2023-08-01T18:32:29;1.77;;;1.23;;
6757;SDS011;3416;53.074;8.822;2023-08-01T18:34:56;3.27;;;1.10;;
6757;SDS011;3416;53.074;8.822;2023-08-01T18:37:24;1.07;;;0.97;;
6757;SDS011;3416;53.074;8.822;2023-08-01T18:39:52;2.23;;;1.67;;